Hauptseite
METAR-TAF:

METAR-TAF

Flughäfen :

Flughafen Brüssel-Charleroi

Charleroi, Belgien

Breite: 50-28N, Länge: 004-27E, Höhe: 187 m

Beobachtung

Neuester Wetterbericht von vor 30 Minuten, um 01:50 UTC
Wind 8 kt aus Ost/Nordost
Temperatur 1°C
Luftfeuchtigkeit 80%
Luftdruck 1027 hPa
Sichtweite 10 km oder mehr
keine Wolken unter 1500 m und keine Kumulonimbus oder Gewitterwolken

METAR: EBCI 180150Z 06008KT CAVOK 01/M02 Q1027 NOSIG

Zeit: 03:20 (02:20 UTC)

Prognose

Neuester Wetterbericht von vor 3 Stunden und 20 Minuten, um 23:00 UTC
Gültige Prognose vom 18 um 00 UTC bis 19 um 06 UTC
Wind 8 kt aus Ost/Nordost
Sichtweite 10 km oder mehr
keine Wolken unter 1500 m und keine Kumulonimbus oder Gewitterwolken
Wahrscheinlichkeit 30% :
Zeitweise
vom 19 um 04 UTC bis 19 um 06 UTC
Durchbrochene Bewölkung in der Höhe von 400 ft

TAF: EBCI 172300Z 1800/1906 06008KT CAVOK PROB30 TEMPO 1904/1906 BKN004

Wetterbeobachtungen und Prognosen von mehr als 4000 Flughäfen (METAR und TAF Bericht).

Die verfügbaren Stationen werden durch gelbe und rote Markierungen auf der Karte dargestellt.

Führen Sie die Maus auf sie, um den Namen der Station zu sehen.

Darauf klicken, um die Beobachtung von Wetterbeobachtungen und Prognosen zu sehen.

Um die Karte zu ändern : klicken Sie auf den grünen Tasten mit einem schwarzen Kreuz Zum Vergrößern, auf den grünen Button mit einem Gedankenstrich zu verkleinern, oder auf die grünen Pfeile für benachbarte Karten.


METAR-TAF: